Thorco Crystal — V2BP9 — position and weather

sailwx.info

Track history (hours):
 
Tides and Currents Weather Stations Pressure Air Temp Water Temp Dewpoint Dewpoint Depression Visibility Wind Speed Wind Dir Waves Ship Positions

Thorco Crystal

Last reported at 2014-Aug-29 15:23 UTC. Time now 2014-Aug-30 10:31 UTC.
Position N 37°03' W 009°22'.

Length 145 m; draft 6.3 m.

Type: Cargo ship. MMSI: 304736000.

Date/timePositionNaut miles runAvg speedWind from/ knotsBaromVisibWave heightAir tempDewpointWater temp
2014-Aug-29 15:23N 37°03' W 009°22'1112.7
2014-Aug-29 14:32N 36°53' W 009°18'2311.8
2014-Aug-29 12:33N 36°40' W 008°53'318 7.4
2014-Aug-27 17:33N 36°17' W 002°19'1614.1
2014-Aug-27 16:25N 36°20' W 001°59'4114.3
2014-Aug-27 13:33N 36°27' W 001°09'1414.2
2014-Aug-27 12:33N 36°30' W 000°52'1414.3
2014-Aug-27 11:33N 36°33' W 000°34'1414.4
2014-Aug-27 10:33N 36°36' W 000°17'1414.0
2014-Aug-27 09:33N 36°39' E 000°00'1414.1
2014-Aug-27 08:33N 36°41' E 000°18'1313.3
2014-Aug-27 07:33N 36°43' E 000°34'1312.9
2014-Aug-27 06:33N 36°45' E 000°50'1313.1
2014-Aug-27 05:33N 36°48' E 001°06'1312.7
2014-Aug-27 04:33N 36°50' E 001°22'1312.6
2014-Aug-27 03:33N 36°53' E 001°37'1312.6
2014-Aug-27 02:31N 36°55' E 001°53'1212.9
2014-Aug-27 01:33N 36°57' E 002°08'1313.0
2014-Aug-27 00:33N 37°00' E 002°24'1212.5
2014-Aug-26 23:33N 37°03' E 002°39'1212.4
2014-Aug-26 22:33N 37°05' E 002°55'1312.9
2014-Aug-26 21:30N 37°07' E 003°11'1313.0
2014-Aug-26 20:30N 37°08' E 003°28'1912.8
2014-Aug-26 19:03N 37°11' E 003°51'3511.9
2014-Aug-26 16:04N 37°16' E 004°35'1011.7
2014-Aug-26 15:12N 37°17' E 004°47'2012.2
2014-Aug-26 13:33N 37°20' E 005°12'1212.4
2014-Aug-26 12:33N 37°22' E 005°28'9 8.7
2014-Aug-26 11:28N 37°24' E 005°39'9 9.4
2014-Aug-26 10:33N 37°25' E 005°50'1413.8
2014-Aug-26 09:33N 37°27' E 006°07'1414.0
2014-Aug-26 08:33N 37°29' E 006°25'1613.9
2014-Aug-26 07:26N 37°31' E 006°44'6613.6
2014-Aug-26 02:33N 37°39' E 008°07'1413.6
2014-Aug-26 01:31N 37°41' E 008°25'1513.8
2014-Aug-26 00:28N 37°43' E 008°43'1213.4
2014-Aug-25 23:33N 37°45' E 008°59'1813.1
2014-Aug-25 22:09N 37°43' E 009°22'813.2
2014-Aug-25 21:33N 37°43' E 009°32'1312.8
2014-Aug-25 20:33N 37°41' E 009°48'1413.3
2014-Aug-25 19:29N 37°39' E 010°05'1213.5
2014-Aug-25 18:33N 37°38' E 010°21'1313.3
2014-Aug-25 17:33N 37°35' E 010°38'1413.2
2014-Aug-25 16:30N 37°32' E 010°55'1313.4
2014-Aug-25 15:32N 37°28' E 011°10'6913.2
2014-Aug-25 10:21N 36°59' E 012°28'1013.3
2014-Aug-25 09:33N 36°55' E 012°40'1313.3
2014-Aug-25 08:33N 36°51' E 012°56'2913.1
2014-Aug-25 06:23N 36°42' E 013°30'2513.2
2014-Aug-25 04:31N 36°35' E 013°59'1513.2
2014-Aug-25 03:25N 36°30' E 014°17'1313.4
2014-Aug-25 02:29N 36°27' E 014°32'4013.5
2014-Aug-24 23:31N 36°14' E 015°18'25013.1
2014-Aug-24 04:30N 34°57' E 020°11'6114.1
2014-Aug-24 00:08N 34°38' E 021°21'813.8
2014-Aug-23 23:33N 34°36' E 021°31'1413.9
2014-Aug-23 22:33N 34°31' E 021°47'28113.3
2014-Aug-23 01:30N 33°04' E 027°08'16313.6
2014-Aug-22 13:32N 32°16' E 030°13'3012.9
2014-Aug-22 11:12N 32°06' E 030°47'813.2
2014-Aug-22 10:33N 32°02' E 030°55'4513.0
2014-Aug-22 07:05N 31°49' E 031°46'  
Track history (hours):
 
Tides and Currents Weather Stations Pressure Air Temp Water Temp Dewpoint Dewpoint Depression Visibility Wind Speed Wind Dir Waves Ship Positions

Thorco Crystal

Last reported at 2014-Aug-29 15:23 UTC. Time now 2014-Aug-30 10:31 UTC.
Position N 37°03' W 009°22'.

Length 145 m; draft 6.3 m.

Type: Cargo ship. MMSI: 304736000.

Date/timePositionNaut miles runAvg speedWind from/ knotsBaromVisibWave heightAir tempDewpointWater temp
2014-Aug-29 15:23N 37°03' W 009°22'1112.7
2014-Aug-29 14:32N 36°53' W 009°18'2311.8
2014-Aug-29 12:33N 36°40' W 008°53'318 7.4
2014-Aug-27 17:33N 36°17' W 002°19'1614.1
2014-Aug-27 16:25N 36°20' W 001°59'4114.3
2014-Aug-27 13:33N 36°27' W 001°09'1414.2
2014-Aug-27 12:33N 36°30' W 000°52'1414.3
2014-Aug-27 11:33N 36°33' W 000°34'1414.4
2014-Aug-27 10:33N 36°36' W 000°17'1414.0
2014-Aug-27 09:33N 36°39' E 000°00'1414.1
2014-Aug-27 08:33N 36°41' E 000°18'1313.3
2014-Aug-27 07:33N 36°43' E 000°34'1312.9
2014-Aug-27 06:33N 36°45' E 000°50'1313.1
2014-Aug-27 05:33N 36°48' E 001°06'1312.7
2014-Aug-27 04:33N 36°50' E 001°22'1312.6
2014-Aug-27 03:33N 36°53' E 001°37'1312.6
2014-Aug-27 02:31N 36°55' E 001°53'1212.9
2014-Aug-27 01:33N 36°57' E 002°08'1313.0
2014-Aug-27 00:33N 37°00' E 002°24'1212.5
2014-Aug-26 23:33N 37°03' E 002°39'1212.4
2014-Aug-26 22:33N 37°05' E 002°55'1312.9
2014-Aug-26 21:30N 37°07' E 003°11'1313.0
2014-Aug-26 20:30N 37°08' E 003°28'1912.8
2014-Aug-26 19:03N 37°11' E 003°51'3511.9
2014-Aug-26 16:04N 37°16' E 004°35'1011.7
2014-Aug-26 15:12N 37°17' E 004°47'2012.2
2014-Aug-26 13:33N 37°20' E 005°12'1212.4
2014-Aug-26 12:33N 37°22' E 005°28'9 8.7
2014-Aug-26 11:28N 37°24' E 005°39'9 9.4
2014-Aug-26 10:33N 37°25' E 005°50'1413.8
2014-Aug-26 09:33N 37°27' E 006°07'1414.0
2014-Aug-26 08:33N 37°29' E 006°25'1613.9
2014-Aug-26 07:26N 37°31' E 006°44'6613.6
2014-Aug-26 02:33N 37°39' E 008°07'1413.6
2014-Aug-26 01:31N 37°41' E 008°25'1513.8
2014-Aug-26 00:28N 37°43' E 008°43'1213.4
2014-Aug-25 23:33N 37°45' E 008°59'1813.1
2014-Aug-25 22:09N 37°43' E 009°22'813.2
2014-Aug-25 21:33N 37°43' E 009°32'1312.8
2014-Aug-25 20:33N 37°41' E 009°48'1413.3
2014-Aug-25 19:29N 37°39' E 010°05'1213.5
2014-Aug-25 18:33N 37°38' E 010°21'1313.3
2014-Aug-25 17:33N 37°35' E 010°38'1413.2
2014-Aug-25 16:30N 37°32' E 010°55'1313.4
2014-Aug-25 15:32N 37°28' E 011°10'6913.2
2014-Aug-25 10:21N 36°59' E 012°28'1013.3
2014-Aug-25 09:33N 36°55' E 012°40'1313.3
2014-Aug-25 08:33N 36°51' E 012°56'2913.1
2014-Aug-25 06:23N 36°42' E 013°30'2513.2
2014-Aug-25 04:31N 36°35' E 013°59'1513.2
2014-Aug-25 03:25N 36°30' E 014°17'1313.4
2014-Aug-25 02:29N 36°27' E 014°32'4013.5
2014-Aug-24 23:31N 36°14' E 015°18'25013.1
2014-Aug-24 04:30N 34°57' E 020°11'6114.1
2014-Aug-24 00:08N 34°38' E 021°21'813.8
2014-Aug-23 23:33N 34°36' E 021°31'1413.9
2014-Aug-23 22:33N 34°31' E 021°47'28113.3
2014-Aug-23 01:30N 33°04' E 027°08'16313.6
2014-Aug-22 13:32N 32°16' E 030°13'3012.9
2014-Aug-22 11:12N 32°06' E 030°47'813.2
2014-Aug-22 10:33N 32°02' E 030°55'4513.0
2014-Aug-22 07:05N 31°49' E 031°46'  

Dump ship's entire track history